Lynn, MA (01903)

11:41 AM EDT on August 21, 2014 (GMT -0400)
Buchanan Circle | Change Station
CLOSE
Current Station
Personal Weather Station
Location: Lynn, MA
Elevation: 108 ft
Nearby Weather Stations

Elev 108 ft 42.49 °N, 70.94 °W | Updated 1 minute ago

Mostly Cloudy
Mostly Cloudy
71.9 °F
Feels Like 75 °F
N
2.0
Wind Variable Wind from NNW
Gusts 4.0 mph

Today
High -- | Low -- °F
--% Chance of Precip.
Yesterday
High -- | Low -- °F
Precip. -- in
5:57 AM 7:35 PM
Waning Crescent, 13% visible
Pressure 30.10 in
Visibility 10.0 miles
Clouds Few 4000 ft
Scattered Clouds 16000 ft
Mostly Cloudy 25000 ft
Heat Index 75 °F
Dew Point 61 °F
Humidity 69%
Rainfall 0.00 in
Snow Depth Not available.
UV 5.2 out of 12
Pollen 8.20 out of 12
PM2.5 Good
Flu Activity Not available.
METAR KBOS 211454Z 06006KT 10SM FEW040 SCT160 BKN250 20/16 A3010 RMK AO2 SLP192 T02000161 50002 VISNO E $

More Conditions Fewer Conditions

Pressure 30.10 in
Visibility 10.0 miles
Clouds Few 4000 ft
Scattered Clouds 16000 ft
Mostly Cloudy 25000 ft
Heat Index 75 °F
Dew Point 61 °F
Humidity 69%
Rainfall 0.00 in
Snow Depth Not available.
UV 5.2 out of 12
Pollen 8.20 out of 12
PM2.5 Good
Flu Activity Not available.
METAR KBOS 211454Z 06006KT 10SM FEW040 SCT160 BKN250 20/16 A3010 RMK AO2 SLP192 T02000161 50002 VISNO E $

More Conditions Fewer Conditions

10-Day Weather Forecast

Almanac

Astronomy

Aug. 21, 2014 Rise Set
Actual Time 5:57 AM EDT 7:35 PM EDT
Civil Twilight 5:27 AM EDT 8:05 PM EDT
Nautical Twilight 4:51 AM EDT 8:41 PM EDT
Astronomical Twilight 4:12 AM EDT 9:20 PM EDT
Moon 2:22 AM EDT 5:04 PM EDT
Length of Visible Light 14h 38m
Length of Day
13h 38m
Tomorrow will be 2m 38s shorter.
Waning Crescent, 13% of the Moon is Illuminated
Today
Waning Crescent
Aug 25
New
Sep 2
First Quarter
Sep 8
Full
Sep 15
Last Quarter

Today's Extremes

State Highs State Lows

Community

WunderPhotos

Upload Photos

1,745,949 photos uploaded!

Nearby

Air Quality

  Air Quality AQ Index Pollutant
Yesterday Good
OZONE
Yesterday Good
PM2.5
Current Good
PM2.5
Thursday Good
PM2.5
Thursday Good
OZONE

Snow Depth

Station Depth Elevation
No new snow has been reported.

Earthquake Activity

City Distance Mag. Time & Date
No recent earthquake activity has been reported nearby.
Minimum magnitude displayed is 2.5.

Coastal Water Temperatures

Place Temperature
Boston, MA 64.0 °F
Providence, RI 73.0 °F
Fall River, MA 73.9 °F
Conimicut Light, RI 73.9 °F

Nearby Weather Stations